createdAt,value
2019-03-18T00:01:01.326Z,7.47
2019-03-18T00:03:32.123Z,8.03
2019-03-18T00:06:02.870Z,7.70
2019-03-18T00:08:33.837Z,6.67
2019-03-18T00:11:04.541Z,6.37
2019-03-18T00:13:35.327Z,6.40
2019-03-18T00:16:06.326Z,4.57
2019-03-18T00:18:37.075Z,3.47
2019-03-18T00:21:07.822Z,3.07
2019-03-18T00:23:38.748Z,2.80
2019-03-18T00:26:09.473Z,1.97
2019-03-18T00:28:40.160Z,2.07
2019-03-18T00:31:10.947Z,1.70
2019-03-18T00:33:41.670Z,1.47
2019-03-18T00:36:12.514Z,1.30
2019-03-18T00:38:43.304Z,1.30
2019-03-18T00:41:14.734Z,1.57
2019-03-18T00:43:45.301Z,1.37
2019-03-18T00:46:15.807Z,1.37
2019-03-18T00:48:46.584Z,1.50
2019-03-18T00:51:17.107Z,1.30
2019-03-18T00:53:47.721Z,1.97
2019-03-18T00:56:18.181Z,3.30
2019-03-18T00:58:48.781Z,1.63
2019-03-18T01:01:19.351Z,1.50
2019-03-18T01:03:50.454Z,1.97
2019-03-18T01:06:21.476Z,1.37
2019-03-18T01:08:51.947Z,1.43
2019-03-18T01:11:22.559Z,1.37
2019-03-18T01:13:53.162Z,1.83
2019-03-18T01:16:23.653Z,1.53
2019-03-18T01:18:54.105Z,1.43
2019-03-18T01:21:24.656Z,1.37
2019-03-18T01:23:55.123Z,1.33
2019-03-18T01:26:25.570Z,1.20
2019-03-18T01:28:56.165Z,1.43
2019-03-18T01:31:26.813Z,1.30
2019-03-18T01:33:57.327Z,1.50
2019-03-18T01:36:28.060Z,1.23
2019-03-18T01:38:58.617Z,1.13
2019-03-18T01:41:29.160Z,1.20
2019-03-18T01:43:59.682Z,1.47
2019-03-18T01:46:30.257Z,1.23
2019-03-18T01:49:00.959Z,1.13
2019-03-18T01:51:31.483Z,1.10
2019-03-18T01:54:01.912Z,1.57
2019-03-18T01:56:32.590Z,1.23
2019-03-18T01:59:03.163Z,1.50
2019-03-18T02:01:33.693Z,1.60
2019-03-18T02:04:04.278Z,2.80
2019-03-18T02:06:34.842Z,2.93
2019-03-18T02:09:06.946Z,3.17
2019-03-18T02:11:37.522Z,3.13
2019-03-18T02:14:07.965Z,4.10
2019-03-18T02:16:38.447Z,3.73
2019-03-18T02:19:09.059Z,3.10
2019-03-18T02:21:39.500Z,3.23
2019-03-18T02:24:09.929Z,3.20
2019-03-18T02:26:40.437Z,3.47
2019-03-18T02:29:10.917Z,3.33
2019-03-18T02:31:41.442Z,3.10
2019-03-18T02:34:13.006Z,3.00
2019-03-18T02:36:43.457Z,2.43
2019-03-18T02:39:13.976Z,2.20
2019-03-18T02:41:44.572Z,2.30
2019-03-18T02:44:15.083Z,2.23
2019-03-18T02:46:45.568Z,2.10
2019-03-18T02:49:16.060Z,2.23
2019-03-18T02:51:46.604Z,2.70
2019-03-18T02:54:17.093Z,3.47
2019-03-18T02:56:47.625Z,3.87
2019-03-18T02:59:19.088Z,4.70
2019-03-18T03:01:49.531Z,4.60
2019-03-18T03:04:19.996Z,5.07
2019-03-18T03:06:50.598Z,5.00
2019-03-18T03:09:21.188Z,6.47
2019-03-18T03:11:51.816Z,8.00
2019-03-18T03:14:22.339Z,8.10
2019-03-18T03:16:52.749Z,9.17
2019-03-18T03:19:23.223Z,7.63
2019-03-18T03:21:53.767Z,7.60
2019-03-18T03:24:24.273Z,7.00
2019-03-18T03:26:54.799Z,5.83
2019-03-18T03:29:25.335Z,4.97
2019-03-18T03:31:55.837Z,4.57
2019-03-18T03:34:26.243Z,4.23
2019-03-18T03:36:57.047Z,3.80
2019-03-18T03:39:27.457Z,3.27
2019-03-18T03:41:58.070Z,3.00
2019-03-18T03:44:29.503Z,3.27
2019-03-18T03:47:00.012Z,3.03
2019-03-18T03:49:30.491Z,3.00
2019-03-18T03:52:01.028Z,2.93
2019-03-18T03:54:31.545Z,3.00
2019-03-18T03:57:02.053Z,2.70
2019-03-18T03:59:32.789Z,3.20
2019-03-18T04:02:03.320Z,2.80
2019-03-18T04:04:33.728Z,3.57
2019-03-18T04:07:04.237Z,3.80
2019-03-18T04:09:34.665Z,4.10
2019-03-18T04:12:05.126Z,3.97
2019-03-18T04:14:35.556Z,3.83
2019-03-18T04:17:07.359Z,3.83
2019-03-18T04:19:38.041Z,5.03
2019-03-18T04:22:08.504Z,4.50
2019-03-18T04:24:38.959Z,5.00
2019-03-18T04:27:09.735Z,4.97
2019-03-18T04:29:40.296Z,4.93
2019-03-18T04:32:10.914Z,4.87
2019-03-18T04:34:41.418Z,6.27
2019-03-18T04:37:11.887Z,5.13
2019-03-18T04:39:42.502Z,5.40
2019-03-18T04:42:13.011Z,5.53
2019-03-18T04:44:43.650Z,6.00
2019-03-18T04:47:14.801Z,5.40
2019-03-18T04:49:45.321Z,5.67
2019-03-18T04:52:15.879Z,5.53
2019-03-18T04:54:46.422Z,4.73
2019-03-18T04:57:16.964Z,4.67
2019-03-18T04:59:47.418Z,4.70
2019-03-18T05:02:18.020Z,4.77
2019-03-18T05:04:48.600Z,4.57
2019-03-18T05:07:19.238Z,4.13
2019-03-18T05:09:49.815Z,4.93
2019-03-18T05:12:20.446Z,4.77
2019-03-18T05:14:51.000Z,5.87
2019-03-18T05:17:26.703Z,5.03
2019-03-18T05:19:53.618Z,4.67
2019-03-18T05:22:24.124Z,4.93
2019-03-18T05:24:54.633Z,4.93
2019-03-18T05:27:25.238Z,4.87
2019-03-18T05:29:55.630Z,4.87
2019-03-18T05:32:26.163Z,5.20
2019-03-18T05:34:56.697Z,4.93
2019-03-18T05:37:27.170Z,4.63
2019-03-18T05:39:57.631Z,4.37
2019-03-18T05:42:28.203Z,4.90
2019-03-18T05:44:58.749Z,3.83
2019-03-18T05:47:38.708Z,3.93
2019-03-18T05:50:01.571Z,4.47
2019-03-18T05:52:32.122Z,5.67
2019-03-18T05:55:02.746Z,5.03
2019-03-18T05:57:33.397Z,5.60
2019-03-18T06:00:04.391Z,5.93
2019-03-18T06:02:35.026Z,5.53
2019-03-18T06:05:06.842Z,4.67
2019-03-18T06:07:37.465Z,4.10
2019-03-18T06:10:09.008Z,4.40
2019-03-18T06:12:39.541Z,3.77
2019-03-18T06:15:10.326Z,4.40
2019-03-18T06:17:51.791Z,4.10
2019-03-18T06:20:13.165Z,3.67
2019-03-18T06:22:43.688Z,3.90
2019-03-18T06:25:14.506Z,4.43
2019-03-18T06:27:45.309Z,3.77
2019-03-18T06:30:15.823Z,4.87
2019-03-18T06:32:46.330Z,4.93
2019-03-18T06:35:16.943Z,5.13
2019-03-18T06:37:47.482Z,4.47
2019-03-18T06:40:19.026Z,5.20
2019-03-18T06:42:49.584Z,5.10
2019-03-18T06:45:20.132Z,4.73
2019-03-18T06:47:51.063Z,5.33
2019-03-18T06:50:23.175Z,6.00
2019-03-18T06:52:54.620Z,5.80
2019-03-18T06:55:25.222Z,6.00
2019-03-18T06:57:55.757Z,6.47
2019-03-18T07:00:26.375Z,6.20
2019-03-18T07:02:56.926Z,6.00
2019-03-18T07:05:27.477Z,5.80
2019-03-18T07:07:57.970Z,5.77
2019-03-18T07:10:28.625Z,5.13
2019-03-18T07:12:59.151Z,5.27
2019-03-18T07:15:29.772Z,5.30
2019-03-18T07:18:00.197Z,4.90
2019-03-18T07:20:30.685Z,5.37
2019-03-18T07:23:02.999Z,5.47
2019-03-18T07:25:33.633Z,4.77
2019-03-18T07:28:04.173Z,4.80
2019-03-18T07:30:34.819Z,4.90
2019-03-18T07:33:05.390Z,4.40
2019-03-18T07:35:35.906Z,3.93
2019-03-18T07:38:06.410Z,3.63
2019-03-18T07:40:38.493Z,4.47
2019-03-18T07:43:09.016Z,3.63
2019-03-18T07:45:39.607Z,3.93
2019-03-18T07:48:12.470Z,4.07
2019-03-18T07:50:42.464Z,4.03
2019-03-18T07:53:12.976Z,3.83
2019-03-18T07:55:43.468Z,3.43
2019-03-18T07:58:14.124Z,3.37
2019-03-18T08:00:44.809Z,3.27
2019-03-18T08:03:15.533Z,3.37
2019-03-18T08:05:45.993Z,3.10
2019-03-18T08:08:16.496Z,2.97
2019-03-18T08:10:46.955Z,3.13
2019-03-18T08:13:17.458Z,3.23
2019-03-18T08:15:47.986Z,2.23
2019-03-18T08:18:19.499Z,2.60
2019-03-18T08:20:49.993Z,2.57
2019-03-18T08:23:20.559Z,2.63
2019-03-18T08:25:51.067Z,2.53
2019-03-18T08:28:21.605Z,2.50
2019-03-18T08:30:52.293Z,2.40
2019-03-18T08:33:22.808Z,2.80
2019-03-18T08:35:53.243Z,2.87
2019-03-18T08:38:24.074Z,3.90
2019-03-18T08:40:55.753Z,3.00
2019-03-18T08:43:26.407Z,3.20
2019-03-18T08:45:56.929Z,3.10
2019-03-18T08:48:27.901Z,3.17
2019-03-18T08:50:58.477Z,2.97
2019-03-18T08:53:29.097Z,2.70
2019-03-18T08:55:59.747Z,3.33
2019-03-18T08:58:30.330Z,3.70
2019-03-18T09:01:00.822Z,2.50
2019-03-18T09:03:31.304Z,2.33
2019-03-18T09:06:01.990Z,2.60
2019-03-18T09:08:32.430Z,2.90
2019-03-18T09:11:02.935Z,3.10
2019-03-18T09:13:33.490Z,2.77
2019-03-18T09:16:03.982Z,2.40
2019-03-18T09:18:34.597Z,2.30
2019-03-18T09:21:12.726Z,2.20
2019-03-18T09:23:43.115Z,2.50
2019-03-18T09:26:13.620Z,1.97
2019-03-18T09:28:44.081Z,2.30
2019-03-18T09:31:15.674Z,2.17
2019-03-18T09:33:46.243Z,2.60
2019-03-18T09:36:16.755Z,3.07
2019-03-18T09:38:47.243Z,2.30
2019-03-18T09:41:18.677Z,1.50
2019-03-18T09:43:49.182Z,2.03
2019-03-18T09:46:19.609Z,1.97
2019-03-18T09:48:50.156Z,1.60
2019-03-18T09:51:20.729Z,1.73
2019-03-18T09:53:56.308Z,1.00
2019-03-18T09:56:26.801Z,1.03
2019-03-18T09:58:57.346Z,1.37
2019-03-18T10:01:27.782Z,1.77
2019-03-18T10:03:58.243Z,0.90
2019-03-18T10:06:28.700Z,1.27
2019-03-18T10:08:59.407Z,1.43
2019-03-18T10:11:29.912Z,1.70
2019-03-18T10:14:00.324Z,1.70
2019-03-18T10:16:30.851Z,1.70
2019-03-18T10:19:01.301Z,2.00
2019-03-18T10:21:31.895Z,1.90
2019-03-18T10:24:02.711Z,2.10
2019-03-18T10:26:33.226Z,2.70
2019-03-18T10:29:04.017Z,3.17
2019-03-18T10:31:34.512Z,3.37
2019-03-18T10:34:05.070Z,3.00
2019-03-18T10:36:35.573Z,2.90
2019-03-18T10:39:08.049Z,3.20
2019-03-18T10:41:38.512Z,2.50
2019-03-18T10:44:09.000Z,3.07
2019-03-18T10:46:39.516Z,3.40
2019-03-18T10:49:10.034Z,3.47
2019-03-18T10:51:40.639Z,3.17
2019-03-18T10:54:11.050Z,3.23
2019-03-18T10:56:41.800Z,3.17
2019-03-18T10:59:12.347Z,2.90
2019-03-18T11:01:42.823Z,2.87
2019-03-18T11:04:13.432Z,3.33
2019-03-18T11:06:44.033Z,3.40
2019-03-18T11:09:14.901Z,3.00
2019-03-18T11:11:45.429Z,5.17
2019-03-18T11:14:16.097Z,3.50
2019-03-18T11:16:46.559Z,3.47
2019-03-18T11:19:17.163Z,3.77
2019-03-18T11:21:48.643Z,3.47
2019-03-18T11:24:19.201Z,4.47
2019-03-18T11:26:49.968Z,4.37
2019-03-18T11:29:21.633Z,4.90
2019-03-18T11:31:52.304Z,4.07
2019-03-18T11:34:22.742Z,3.70
2019-03-18T11:36:53.267Z,4.33
2019-03-18T11:39:24.795Z,3.97
2019-03-18T11:41:55.235Z,4.37
2019-03-18T11:44:25.683Z,4.27
2019-03-18T11:46:56.152Z,3.67
2019-03-18T11:49:38.785Z,4.83
2019-03-18T11:51:59.180Z,4.93
2019-03-18T11:54:30.074Z,3.77
2019-03-18T11:57:00.857Z,4.13
2019-03-18T11:59:31.347Z,6.33
2019-03-18T12:02:01.842Z,5.20
2019-03-18T12:04:32.917Z,4.90
2019-03-18T12:07:03.708Z,4.67
2019-03-18T12:09:34.618Z,5.50
2019-03-18T12:12:05.492Z,5.00
2019-03-18T12:14:36.054Z,4.57
2019-03-18T12:17:06.618Z,3.80
2019-03-18T12:19:37.205Z,4.60
2019-03-18T12:22:07.908Z,3.90
2019-03-18T12:24:38.466Z,4.57
2019-03-18T12:27:09.108Z,3.20
2019-03-18T12:29:39.611Z,2.97
2019-03-18T12:32:10.109Z,3.53
2019-03-18T12:34:40.656Z,2.77
2019-03-18T12:37:11.434Z,2.97
2019-03-18T12:39:41.939Z,4.27
2019-03-18T12:42:12.458Z,3.30
2019-03-18T12:44:43.164Z,3.20
2019-03-18T12:47:13.791Z,3.33
2019-03-18T12:49:44.487Z,3.40
2019-03-18T12:52:15.076Z,4.30
2019-03-18T12:54:45.606Z,3.20
2019-03-18T12:57:16.111Z,3.50
2019-03-18T12:59:46.648Z,3.00
2019-03-18T13:02:18.135Z,3.43
2019-03-18T13:04:48.665Z,2.97
2019-03-18T13:07:19.245Z,2.70
2019-03-18T13:09:49.835Z,3.10
2019-03-18T13:12:20.593Z,2.93
2019-03-18T13:14:51.135Z,2.90
2019-03-18T13:17:21.637Z,3.40
2019-03-18T13:19:52.047Z,3.20
2019-03-18T13:22:22.598Z,2.40
2019-03-18T13:24:53.189Z,2.87
2019-03-18T13:27:23.697Z,2.50
2019-03-18T13:29:54.167Z,2.40
2019-03-18T13:32:24.634Z,2.47
2019-03-18T13:34:55.227Z,2.23
2019-03-18T13:37:25.727Z,2.60
2019-03-18T13:39:56.170Z,2.67
2019-03-18T13:42:26.640Z,2.67
2019-03-18T13:44:57.337Z,2.47
2019-03-18T13:47:27.908Z,2.33
2019-03-18T13:49:58.493Z,2.67
2019-03-18T13:52:28.998Z,2.80
2019-03-18T13:54:59.570Z,2.80
2019-03-18T13:57:30.402Z,3.30
2019-03-18T14:00:00.974Z,2.73
2019-03-18T14:02:31.620Z,2.60
2019-03-18T14:05:02.202Z,3.83
2019-03-18T14:07:32.755Z,2.90
2019-03-18T14:10:03.402Z,2.50
2019-03-18T14:12:36.995Z,3.00
2019-03-18T14:15:08.234Z,4.43
2019-03-18T14:17:40.116Z,3.13
2019-03-18T14:20:11.701Z,2.70
2019-03-18T14:22:42.281Z,3.03
2019-03-18T14:25:12.832Z,3.17
2019-03-18T14:27:43.415Z,2.90
2019-03-18T14:30:15.415Z,2.47
2019-03-18T14:32:45.954Z,3.03
2019-03-18T14:35:16.510Z,2.83
2019-03-18T14:37:47.076Z,2.70
2019-03-18T14:40:17.575Z,3.03
2019-03-18T14:42:48.079Z,3.10
2019-03-18T14:45:18.860Z,4.20
2019-03-18T14:47:49.636Z,3.70
2019-03-18T14:50:20.272Z,3.20
2019-03-18T14:52:50.986Z,3.37
2019-03-18T14:55:21.594Z,2.90
2019-03-18T14:57:52.331Z,2.00
2019-03-18T15:00:22.962Z,2.20
2019-03-18T15:02:53.709Z,2.70
2019-03-18T15:05:24.153Z,2.43
2019-03-18T15:07:54.608Z,2.70
2019-03-18T15:10:25.221Z,3.60
2019-03-18T15:12:55.961Z,2.53
2019-03-18T15:15:26.536Z,2.40
2019-03-18T15:17:57.127Z,2.40
2019-03-18T15:20:27.752Z,2.33
2019-03-18T15:22:58.359Z,3.10
2019-03-18T15:25:28.895Z,2.87
2019-03-18T15:27:59.440Z,2.77
2019-03-18T15:30:29.861Z,2.77
2019-03-18T15:33:00.669Z,4.33
2019-03-18T15:35:31.229Z,3.00
2019-03-18T15:38:01.937Z,2.83
2019-03-18T15:40:32.407Z,3.23
2019-03-18T15:43:03.014Z,2.53
2019-03-18T15:45:33.504Z,3.57
2019-03-18T15:48:03.956Z,5.03
2019-03-18T15:50:34.516Z,3.67
2019-03-18T15:53:05.005Z,3.77
2019-03-18T15:55:35.589Z,3.37
2019-03-18T15:58:06.196Z,3.60
2019-03-18T16:00:36.706Z,3.47
2019-03-18T16:03:09.467Z,3.87
2019-03-18T16:05:40.029Z,4.07
2019-03-18T16:08:10.620Z,3.57
2019-03-18T16:10:41.146Z,5.10
2019-03-18T16:13:11.770Z,4.33
2019-03-18T16:15:42.287Z,3.90
2019-03-18T16:18:12.772Z,4.40
2019-03-18T16:20:43.434Z,5.37
2019-03-18T16:23:13.993Z,4.23
2019-03-18T16:25:44.447Z,4.40
2019-03-18T16:28:15.034Z,5.07
2019-03-18T16:30:45.522Z,5.43
2019-03-18T16:33:15.960Z,4.50
2019-03-18T16:35:46.625Z,4.90
2019-03-18T16:38:17.134Z,4.37
2019-03-18T16:40:47.669Z,3.70
2019-03-18T16:43:18.536Z,4.60
2019-03-18T16:45:49.366Z,4.37
2019-03-18T16:48:19.885Z,5.00
2019-03-18T16:50:50.455Z,4.77
2019-03-18T16:53:21.186Z,5.27
2019-03-18T16:55:51.690Z,6.90
2019-03-18T16:58:22.521Z,7.43
2019-03-18T17:00:53.055Z,6.80
2019-03-18T17:03:23.597Z,7.47
2019-03-18T17:05:55.110Z,6.70
2019-03-18T17:08:25.607Z,5.97
2019-03-18T17:10:56.149Z,5.93
2019-03-18T17:13:26.625Z,6.87
2019-03-18T17:15:57.469Z,6.27
2019-03-18T17:18:28.000Z,6.80
2019-03-18T17:20:58.663Z,7.23
2019-03-18T17:23:29.270Z,6.57
2019-03-18T17:25:59.921Z,7.13
2019-03-18T17:28:30.456Z,7.47
2019-03-18T17:31:01.880Z,8.13
2019-03-18T17:33:32.388Z,8.17
2019-03-18T17:36:03.995Z,8.27
2019-03-18T17:38:34.645Z,7.00
2019-03-18T17:41:05.421Z,9.30
2019-03-18T17:43:35.922Z,9.17
2019-03-18T17:46:06.663Z,10.13
2019-03-18T17:48:39.529Z,9.30
2019-03-18T17:51:10.326Z,9.10
2019-03-18T17:53:40.890Z,8.57
2019-03-18T17:56:11.624Z,8.37
2019-03-18T17:58:42.214Z,9.20
2019-03-18T18:01:13.121Z,9.37
2019-03-18T18:03:43.618Z,8.97
2019-03-18T18:06:14.246Z,8.37
2019-03-18T18:08:44.755Z,8.10
2019-03-18T18:11:15.358Z,13.53
2019-03-18T18:13:45.932Z,10.00
2019-03-18T18:16:16.643Z,9.30
2019-03-18T18:18:47.271Z,11.57
2019-03-18T18:21:17.895Z,10.40
2019-03-18T18:23:49.615Z,10.10
2019-03-18T18:26:20.431Z,10.47
2019-03-18T18:28:50.991Z,11.70
2019-03-18T18:31:21.568Z,12.70
2019-03-18T18:33:52.078Z,11.73
2019-03-18T18:36:25.149Z,13.53
2019-03-18T18:38:54.744Z,14.00
2019-03-18T18:41:25.336Z,13.58
2019-03-18T18:43:55.864Z,14.23
2019-03-18T18:46:26.428Z,14.50
2019-03-18T18:48:56.974Z,12.60
2019-03-18T18:51:31.401Z,13.60
2019-03-18T18:54:02.009Z,12.00
2019-03-18T18:56:32.609Z,14.03
2019-03-18T18:59:03.145Z,12.57
2019-03-18T19:01:36.099Z,12.57
2019-03-18T19:04:06.854Z,12.83
2019-03-18T19:06:37.680Z,12.00
2019-03-18T19:09:08.630Z,13.17
2019-03-18T19:11:39.256Z,12.10
2019-03-18T19:14:09.899Z,10.80
2019-03-18T19:16:40.385Z,11.93
2019-03-18T19:19:11.951Z,13.03
2019-03-18T19:21:42.526Z,14.03
2019-03-18T19:24:13.065Z,12.37
2019-03-18T19:26:43.536Z,15.03
2019-03-18T19:29:14.251Z,14.03
2019-03-18T19:31:45.936Z,11.77
2019-03-18T19:34:16.610Z,12.57
2019-03-18T19:36:47.196Z,14.67
2019-03-18T19:39:17.801Z,12.37
2019-03-18T19:41:48.451Z,11.70
2019-03-18T19:44:19.141Z,12.57
2019-03-18T19:46:49.733Z,11.27
2019-03-18T19:49:20.292Z,10.80
2019-03-18T19:51:51.178Z,12.97
2019-03-18T19:54:21.828Z,12.20
2019-03-18T19:56:52.417Z,12.17
2019-03-18T19:59:23.118Z,12.43
2019-03-18T20:01:53.766Z,12.97
2019-03-18T20:04:24.412Z,12.70
2019-03-18T20:06:55.078Z,13.30
2019-03-18T20:09:25.666Z,12.80
2019-03-18T20:11:56.259Z,13.27
2019-03-18T20:14:29.339Z,12.43
2019-03-18T20:16:59.974Z,12.43
2019-03-18T20:19:30.549Z,12.50
2019-03-18T20:22:01.011Z,13.33
2019-03-18T20:24:31.614Z,12.23
2019-03-18T20:27:03.544Z,15.43
2019-03-18T20:29:34.119Z,13.60
2019-03-18T20:32:04.746Z,15.07
2019-03-18T20:34:35.358Z,14.53
2019-03-18T20:37:05.901Z,15.70
2019-03-18T20:39:39.009Z,16.00
2019-03-18T20:42:11.647Z,16.37
2019-03-18T20:44:42.499Z,16.90
2019-03-18T20:47:13.049Z,17.63
2019-03-18T20:49:43.671Z,16.67
2019-03-18T20:52:16.913Z,16.73
2019-03-18T20:54:48.467Z,18.93
2019-03-18T20:57:19.305Z,17.60
2019-03-18T20:59:49.842Z,18.80
2019-03-18T21:02:20.382Z,20.27
2019-03-18T21:04:51.023Z,20.30
2019-03-18T21:07:22.727Z,21.00
2019-03-18T21:09:53.355Z,18.33
2019-03-18T21:12:24.048Z,18.87
2019-03-18T21:14:54.753Z,17.80
2019-03-18T21:17:25.311Z,24.60
2019-03-18T21:19:56.060Z,19.67
2019-03-18T21:22:26.625Z,18.73
2019-03-18T21:24:57.951Z,19.37
2019-03-18T21:27:28.713Z,20.13
2019-03-18T21:29:59.674Z,19.37
2019-03-18T21:32:30.158Z,21.27
2019-03-18T21:35:00.765Z,19.53
2019-03-18T21:37:31.432Z,20.77
2019-03-18T21:40:02.342Z,20.00
2019-03-18T21:42:32.850Z,21.20
2019-03-18T21:45:03.403Z,19.93
2019-03-18T21:47:33.938Z,20.07
2019-03-18T21:50:04.723Z,19.97
2019-03-18T21:52:35.173Z,20.53
2019-03-18T21:55:06.159Z,21.03
2019-03-18T21:57:36.678Z,20.83
2019-03-18T22:00:07.582Z,20.83
2019-03-18T22:02:39.394Z,19.90
2019-03-18T22:05:10.161Z,21.77
2019-03-18T22:07:40.672Z,22.40
2019-03-18T22:10:12.626Z,22.73
2019-03-18T22:12:43.109Z,22.33
2019-03-18T22:15:13.859Z,23.27
2019-03-18T22:17:46.599Z,22.07
2019-03-18T22:20:17.202Z,22.70
2019-03-18T22:22:47.684Z,22.93
2019-03-18T22:25:20.556Z,21.83
2019-03-18T22:27:51.004Z,25.53
2019-03-18T22:30:23.226Z,22.17
2019-03-18T22:32:53.673Z,23.67
2019-03-18T22:35:24.564Z,22.50
2019-03-18T22:37:54.973Z,20.47
2019-03-18T22:40:25.731Z,19.43
2019-03-18T22:42:56.236Z,17.60
2019-03-18T22:45:27.033Z,19.63
2019-03-18T22:47:57.458Z,17.00
2019-03-18T22:50:28.106Z,18.40
2019-03-18T22:52:58.744Z,19.73
2019-03-18T22:55:29.626Z,15.07
2019-03-18T22:58:00.185Z,16.53
2019-03-18T23:00:47.262Z,15.93
2019-03-18T23:03:18.084Z,15.13
2019-03-18T23:05:48.571Z,16.43
2019-03-18T23:08:21.501Z,15.67
2019-03-18T23:10:52.123Z,14.73
2019-03-18T23:13:22.717Z,16.57
2019-03-18T23:15:55.952Z,16.30
2019-03-18T23:18:26.595Z,15.97
2019-03-18T23:20:57.364Z,14.70
2019-03-18T23:23:28.018Z,14.33
2019-03-18T23:25:58.566Z,14.57
2019-03-18T23:28:29.153Z,16.63
2019-03-18T23:30:59.594Z,16.87
2019-03-18T23:33:30.324Z,16.93
2019-03-18T23:36:01.035Z,16.67
2019-03-18T23:38:31.745Z,19.03
2019-03-18T23:41:02.282Z,18.13
2019-03-18T23:43:33.930Z,19.40
2019-03-18T23:46:04.371Z,19.13
2019-03-18T23:48:34.957Z,18.23
2019-03-18T23:51:05.578Z,17.33
2019-03-18T23:53:36.122Z,18.70
2019-03-18T23:56:06.598Z,17.87
2019-03-18T23:58:37.111Z,18.50
